sensor_id;sensor_type;location;lat;lon;timestamp;P1;durP1;ratioP1;P2;durP2;ratioP2
15071;SDS011;7635;56.696;13.002;2024-02-26T00:01:47;4.50;;;2.90;;
15071;SDS011;7635;56.696;13.002;2024-02-26T00:04:14;4.43;;;2.50;;
15071;SDS011;7635;56.696;13.002;2024-02-26T00:06:41;4.43;;;2.83;;
15071;SDS011;7635;56.696;13.002;2024-02-26T00:09:10;3.17;;;2.50;;
15071;SDS011;7635;56.696;13.002;2024-02-26T00:11:37;2.92;;;2.47;;
15071;SDS011;7635;56.696;13.002;2024-02-26T00:14:04;4.20;;;2.07;;
15071;SDS011;7635;56.696;13.002;2024-02-26T00:16:31;5.18;;;2.88;;
15071;SDS011;7635;56.696;13.002;2024-02-26T00:18:58;3.50;;;2.72;;
15071;SDS011;7635;56.696;13.002;2024-02-26T00:21:25;3.42;;;2.70;;
15071;SDS011;7635;56.696;13.002;2024-02-26T00:23:52;4.70;;;2.47;;
15071;SDS011;7635;56.696;13.002;2024-02-26T00:26:21;3.85;;;2.97;;
15071;SDS011;7635;56.696;13.002;2024-02-26T00:28:48;9.23;;;3.13;;
15071;SDS011;7635;56.696;13.002;2024-02-26T00:31:15;3.67;;;2.45;;
15071;SDS011;7635;56.696;13.002;2024-02-26T00:33:42;3.70;;;2.50;;
15071;SDS011;7635;56.696;13.002;2024-02-26T00:36:10;4.55;;;2.25;;
15071;SDS011;7635;56.696;13.002;2024-02-26T00:38:37;3.47;;;2.67;;
15071;SDS011;7635;56.696;13.002;2024-02-26T00:41:05;2.53;;;2.33;;
15071;SDS011;7635;56.696;13.002;2024-02-26T00:43:33;3.13;;;2.30;;
15071;SDS011;7635;56.696;13.002;2024-02-26T00:46:03;3.17;;;2.33;;
15071;SDS011;7635;56.696;13.002;2024-02-26T00:48:30;3.88;;;3.00;;
15071;SDS011;7635;56.696;13.002;2024-02-26T00:50:57;3.95;;;2.80;;
15071;SDS011;7635;56.696;13.002;2024-02-26T00:53:24;3.65;;;2.55;;
15071;SDS011;7635;56.696;13.002;2024-02-26T00:55:51;3.55;;;2.78;;
15071;SDS011;7635;56.696;13.002;2024-02-26T00:58:18;3.00;;;2.42;;
15071;SDS011;7635;56.696;13.002;2024-02-26T01:00:47;3.15;;;2.22;;
15071;SDS011;7635;56.696;13.002;2024-02-26T01:03:14;3.42;;;2.70;;
15071;SDS011;7635;56.696;13.002;2024-02-26T01:05:41;3.55;;;2.60;;
15071;SDS011;7635;56.696;13.002;2024-02-26T01:08:08;3.72;;;2.80;;
15071;SDS011;7635;56.696;13.002;2024-02-26T01:10:35;3.40;;;2.65;;
15071;SDS011;7635;56.696;13.002;2024-02-26T01:13:02;4.40;;;2.80;;
15071;SDS011;7635;56.696;13.002;2024-02-26T01:15:29;3.53;;;2.75;;
15071;SDS011;7635;56.696;13.002;2024-02-26T01:17:57;5.43;;;2.65;;
15071;SDS011;7635;56.696;13.002;2024-02-26T01:20:24;3.13;;;2.55;;
15071;SDS011;7635;56.696;13.002;2024-02-26T01:22:51;3.13;;;2.45;;
15071;SDS011;7635;56.696;13.002;2024-02-26T01:25:18;5.38;;;2.80;;
15071;SDS011;7635;56.696;13.002;2024-02-26T01:27:46;4.72;;;2.78;;
15071;SDS011;7635;56.696;13.002;2024-02-26T01:30:14;3.17;;;2.28;;
15071;SDS011;7635;56.696;13.002;2024-02-26T01:32:42;4.20;;;2.53;;
15071;SDS011;7635;56.696;13.002;2024-02-26T01:35:10;4.10;;;2.75;;
15071;SDS011;7635;56.696;13.002;2024-02-26T01:37:37;3.72;;;2.42;;
15071;SDS011;7635;56.696;13.002;2024-02-26T01:40:05;2.60;;;2.30;;
15071;SDS011;7635;56.696;13.002;2024-02-26T01:42:34;3.33;;;2.63;;
15071;SDS011;7635;56.696;13.002;2024-02-26T01:45:01;3.20;;;2.50;;
15071;SDS011;7635;56.696;13.002;2024-02-26T01:47:29;6.35;;;3.47;;
15071;SDS011;7635;56.696;13.002;2024-02-26T01:49:56;3.65;;;2.72;;
15071;SDS011;7635;56.696;13.002;2024-02-26T01:52:25;3.78;;;2.67;;
15071;SDS011;7635;56.696;13.002;2024-02-26T01:54:53;3.13;;;2.53;;
15071;SDS011;7635;56.696;13.002;2024-02-26T01:57:20;3.60;;;2.47;;
15071;SDS011;7635;56.696;13.002;2024-02-26T01:59:47;2.38;;;2.17;;
15071;SDS011;7635;56.696;13.002;2024-02-26T02:02:14;3.43;;;2.57;;
15071;SDS011;7635;56.696;13.002;2024-02-26T02:04:42;3.30;;;2.53;;
15071;SDS011;7635;56.696;13.002;2024-02-26T02:07:09;2.65;;;2.15;;
15071;SDS011;7635;56.696;13.002;2024-02-26T02:09:37;4.18;;;2.63;;
15071;SDS011;7635;56.696;13.002;2024-02-26T02:12:05;3.72;;;2.63;;
15071;SDS011;7635;56.696;13.002;2024-02-26T02:14:32;5.15;;;2.67;;
15071;SDS011;7635;56.696;13.002;2024-02-26T02:16:59;2.67;;;2.35;;
15071;SDS011;7635;56.696;13.002;2024-02-26T02:19:26;5.05;;;2.55;;
15071;SDS011;7635;56.696;13.002;2024-02-26T02:21:55;2.85;;;2.40;;
15071;SDS011;7635;56.696;13.002;2024-02-26T02:24:22;3.03;;;2.40;;
15071;SDS011;7635;56.696;13.002;2024-02-26T02:26:49;3.17;;;2.53;;
15071;SDS011;7635;56.696;13.002;2024-02-26T02:29:16;3.60;;;2.70;;
15071;SDS011;7635;56.696;13.002;2024-02-26T02:31:43;3.25;;;2.55;;
15071;SDS011;7635;56.696;13.002;2024-02-26T02:34:10;4.80;;;2.85;;
15071;SDS011;7635;56.696;13.002;2024-02-26T02:36:48;5.05;;;2.58;;
15071;SDS011;7635;56.696;13.002;2024-02-26T02:39:16;3.28;;;2.55;;
15071;SDS011;7635;56.696;13.002;2024-02-26T02:41:43;2.78;;;2.45;;
15071;SDS011;7635;56.696;13.002;2024-02-26T02:44:10;4.35;;;2.72;;
15071;SDS011;7635;56.696;13.002;2024-02-26T02:46:38;3.00;;;2.47;;
15071;SDS011;7635;56.696;13.002;2024-02-26T02:49:07;4.20;;;2.72;;
15071;SDS011;7635;56.696;13.002;2024-02-26T02:51:35;3.87;;;2.67;;
15071;SDS011;7635;56.696;13.002;2024-02-26T02:54:02;4.07;;;3.05;;
15071;SDS011;7635;56.696;13.002;2024-02-26T02:56:30;3.78;;;2.33;;
15071;SDS011;7635;56.696;13.002;2024-02-26T02:58:58;5.45;;;3.13;;
15071;SDS011;7635;56.696;13.002;2024-02-26T03:01:25;4.28;;;2.78;;
15071;SDS011;7635;56.696;13.002;2024-02-26T03:03:52;2.85;;;2.47;;
15071;SDS011;7635;56.696;13.002;2024-02-26T03:06:19;2.67;;;2.47;;
15071;SDS011;7635;56.696;13.002;2024-02-26T03:08:47;5.00;;;3.00;;
15071;SDS011;7635;56.696;13.002;2024-02-26T03:11:14;4.72;;;2.63;;
15071;SDS011;7635;56.696;13.002;2024-02-26T03:13:42;3.67;;;2.55;;
15071;SDS011;7635;56.696;13.002;2024-02-26T03:16:09;4.97;;;3.03;;
15071;SDS011;7635;56.696;13.002;2024-02-26T03:18:38;4.50;;;2.63;;
15071;SDS011;7635;56.696;13.002;2024-02-26T03:21:05;2.85;;;2.50;;
15071;SDS011;7635;56.696;13.002;2024-02-26T03:23:32;4.90;;;3.05;;
15071;SDS011;7635;56.696;13.002;2024-02-26T03:26:01;4.07;;;2.85;;
15071;SDS011;7635;56.696;13.002;2024-02-26T03:28:28;3.80;;;2.75;;
15071;SDS011;7635;56.696;13.002;2024-02-26T03:30:57;5.38;;;3.08;;
15071;SDS011;7635;56.696;13.002;2024-02-26T03:33:24;5.10;;;3.00;;
15071;SDS011;7635;56.696;13.002;2024-02-26T03:35:51;3.78;;;3.25;;
15071;SDS011;7635;56.696;13.002;2024-02-26T03:38:19;4.63;;;2.97;;
15071;SDS011;7635;56.696;13.002;2024-02-26T03:40:46;4.95;;;3.63;;
15071;SDS011;7635;56.696;13.002;2024-02-26T03:43:13;4.07;;;2.92;;
15071;SDS011;7635;56.696;13.002;2024-02-26T03:45:41;4.70;;;3.20;;
15071;SDS011;7635;56.696;13.002;2024-02-26T03:48:09;4.63;;;3.17;;
15071;SDS011;7635;56.696;13.002;2024-02-26T03:50:36;6.03;;;3.17;;
15071;SDS011;7635;56.696;13.002;2024-02-26T03:53:03;5.00;;;3.28;;
15071;SDS011;7635;56.696;13.002;2024-02-26T03:55:31;5.20;;;3.00;;
15071;SDS011;7635;56.696;13.002;2024-02-26T03:57:58;3.90;;;2.90;;
15071;SDS011;7635;56.696;13.002;2024-02-26T04:00:25;5.95;;;3.25;;
15071;SDS011;7635;56.696;13.002;2024-02-26T04:02:54;5.28;;;3.53;;
15071;SDS011;7635;56.696;13.002;2024-02-26T04:05:22;3.75;;;2.72;;
15071;SDS011;7635;56.696;13.002;2024-02-26T04:07:49;2.78;;;2.47;;
15071;SDS011;7635;56.696;13.002;2024-02-26T04:10:16;6.22;;;3.65;;
15071;SDS011;7635;56.696;13.002;2024-02-26T04:12:44;3.90;;;2.90;;
15071;SDS011;7635;56.696;13.002;2024-02-26T04:15:11;5.43;;;3.42;;
15071;SDS011;7635;56.696;13.002;2024-02-26T04:17:38;4.88;;;2.90;;
15071;SDS011;7635;56.696;13.002;2024-02-26T04:20:06;3.55;;;2.83;;
15071;SDS011;7635;56.696;13.002;2024-02-26T04:22:34;4.15;;;3.22;;
15071;SDS011;7635;56.696;13.002;2024-02-26T04:25:01;7.88;;;3.97;;
15071;SDS011;7635;56.696;13.002;2024-02-26T04:27:28;5.40;;;3.15;;
15071;SDS011;7635;56.696;13.002;2024-02-26T04:29:55;4.57;;;3.08;;
15071;SDS011;7635;56.696;13.002;2024-02-26T04:32:22;5.35;;;3.50;;
15071;SDS011;7635;56.696;13.002;2024-02-26T04:34:50;5.68;;;3.88;;
15071;SDS011;7635;56.696;13.002;2024-02-26T04:37:17;4.90;;;3.43;;
15071;SDS011;7635;56.696;13.002;2024-02-26T04:39:45;4.30;;;3.47;;
15071;SDS011;7635;56.696;13.002;2024-02-26T04:42:12;4.05;;;3.25;;
15071;SDS011;7635;56.696;13.002;2024-02-26T04:44:39;5.15;;;3.40;;
15071;SDS011;7635;56.696;13.002;2024-02-26T04:47:06;5.93;;;3.45;;
15071;SDS011;7635;56.696;13.002;2024-02-26T04:49:33;4.38;;;3.05;;
15071;SDS011;7635;56.696;13.002;2024-02-26T04:52:00;7.03;;;4.07;;
15071;SDS011;7635;56.696;13.002;2024-02-26T04:54:28;4.68;;;3.35;;
15071;SDS011;7635;56.696;13.002;2024-02-26T04:56:56;6.07;;;3.53;;
15071;SDS011;7635;56.696;13.002;2024-02-26T04:59:23;4.18;;;3.05;;
15071;SDS011;7635;56.696;13.002;2024-02-26T05:01:51;5.80;;;3.92;;
15071;SDS011;7635;56.696;13.002;2024-02-26T05:04:18;6.00;;;3.58;;
15071;SDS011;7635;56.696;13.002;2024-02-26T05:06:45;6.03;;;3.17;;
15071;SDS011;7635;56.696;13.002;2024-02-26T05:09:12;4.43;;;3.40;;
15071;SDS011;7635;56.696;13.002;2024-02-26T05:11:39;7.28;;;3.60;;
15071;SDS011;7635;56.696;13.002;2024-02-26T05:14:08;4.88;;;3.22;;
15071;SDS011;7635;56.696;13.002;2024-02-26T05:16:35;7.47;;;3.50;;
15071;SDS011;7635;56.696;13.002;2024-02-26T05:19:02;5.45;;;3.60;;
15071;SDS011;7635;56.696;13.002;2024-02-26T05:21:30;5.60;;;3.33;;
15071;SDS011;7635;56.696;13.002;2024-02-26T05:23:58;7.57;;;4.07;;
15071;SDS011;7635;56.696;13.002;2024-02-26T05:26:26;5.78;;;3.30;;
15071;SDS011;7635;56.696;13.002;2024-02-26T05:28:53;5.85;;;3.97;;
15071;SDS011;7635;56.696;13.002;2024-02-26T05:31:25;5.78;;;4.07;;
15071;SDS011;7635;56.696;13.002;2024-02-26T05:33:53;5.15;;;3.55;;
15071;SDS011;7635;56.696;13.002;2024-02-26T05:36:21;5.68;;;3.38;;
15071;SDS011;7635;56.696;13.002;2024-02-26T05:38:48;8.00;;;3.83;;
15071;SDS011;7635;56.696;13.002;2024-02-26T05:41:15;5.75;;;3.90;;
15071;SDS011;7635;56.696;13.002;2024-02-26T05:43:47;4.15;;;3.28;;
15071;SDS011;7635;56.696;13.002;2024-02-26T05:46:16;5.30;;;3.47;;
15071;SDS011;7635;56.696;13.002;2024-02-26T05:48:44;5.95;;;3.35;;
15071;SDS011;7635;56.696;13.002;2024-02-26T05:51:11;7.38;;;4.32;;
15071;SDS011;7635;56.696;13.002;2024-02-26T05:53:38;4.63;;;3.08;;
15071;SDS011;7635;56.696;13.002;2024-02-26T05:56:05;4.13;;;3.20;;
15071;SDS011;7635;56.696;13.002;2024-02-26T05:58:32;5.75;;;3.60;;
15071;SDS011;7635;56.696;13.002;2024-02-26T06:00:59;5.53;;;3.65;;
15071;SDS011;7635;56.696;13.002;2024-02-26T06:03:27;6.35;;;3.58;;
15071;SDS011;7635;56.696;13.002;2024-02-26T06:05:55;6.28;;;3.58;;
15071;SDS011;7635;56.696;13.002;2024-02-26T06:08:22;5.43;;;3.50;;
15071;SDS011;7635;56.696;13.002;2024-02-26T06:10:49;6.07;;;3.72;;
15071;SDS011;7635;56.696;13.002;2024-02-26T06:13:16;4.68;;;3.80;;
15071;SDS011;7635;56.696;13.002;2024-02-26T06:15:43;5.50;;;3.78;;
15071;SDS011;7635;56.696;13.002;2024-02-26T06:18:11;5.63;;;3.28;;
15071;SDS011;7635;56.696;13.002;2024-02-26T06:20:38;5.68;;;3.47;;
15071;SDS011;7635;56.696;13.002;2024-02-26T06:23:06;4.45;;;3.35;;
15071;SDS011;7635;56.696;13.002;2024-02-26T06:25:35;5.78;;;3.33;;
15071;SDS011;7635;56.696;13.002;2024-02-26T06:28:02;5.05;;;3.38;;
15071;SDS011;7635;56.696;13.002;2024-02-26T06:30:29;4.72;;;3.47;;
15071;SDS011;7635;56.696;13.002;2024-02-26T06:32:56;6.32;;;3.28;;
15071;SDS011;7635;56.696;13.002;2024-02-26T06:35:23;5.55;;;3.38;;
15071;SDS011;7635;56.696;13.002;2024-02-26T06:37:51;4.13;;;3.38;;
15071;SDS011;7635;56.696;13.002;2024-02-26T06:40:19;4.18;;;3.20;;
15071;SDS011;7635;56.696;13.002;2024-02-26T06:42:46;5.68;;;3.58;;
15071;SDS011;7635;56.696;13.002;2024-02-26T06:45:15;6.07;;;3.60;;
15071;SDS011;7635;56.696;13.002;2024-02-26T06:47:43;3.83;;;3.38;;
15071;SDS011;7635;56.696;13.002;2024-02-26T06:50:11;3.47;;;3.03;;
15071;SDS011;7635;56.696;13.002;2024-02-26T06:52:38;6.25;;;4.00;;
15071;SDS011;7635;56.696;13.002;2024-02-26T06:55:05;4.97;;;3.65;;
15071;SDS011;7635;56.696;13.002;2024-02-26T06:57:34;7.65;;;3.92;;
15071;SDS011;7635;56.696;13.002;2024-02-26T07:00:02;7.53;;;3.78;;
15071;SDS011;7635;56.696;13.002;2024-02-26T07:02:29;6.38;;;3.72;;
15071;SDS011;7635;56.696;13.002;2024-02-26T07:04:56;6.47;;;3.67;;
15071;SDS011;7635;56.696;13.002;2024-02-26T07:07:24;5.07;;;3.40;;
15071;SDS011;7635;56.696;13.002;2024-02-26T07:09:51;4.38;;;3.55;;
15071;SDS011;7635;56.696;13.002;2024-02-26T07:12:18;4.80;;;3.60;;
15071;SDS011;7635;56.696;13.002;2024-02-26T07:14:47;5.68;;;3.58;;
15071;SDS011;7635;56.696;13.002;2024-02-26T07:17:15;4.53;;;3.90;;
15071;SDS011;7635;56.696;13.002;2024-02-26T07:19:42;5.72;;;3.45;;
15071;SDS011;7635;56.696;13.002;2024-02-26T07:22:09;4.05;;;3.22;;
15071;SDS011;7635;56.696;13.002;2024-02-26T07:24:36;6.13;;;3.60;;
15071;SDS011;7635;56.696;13.002;2024-02-26T07:27:03;4.80;;;3.45;;
15071;SDS011;7635;56.696;13.002;2024-02-26T07:29:30;4.13;;;3.08;;
15071;SDS011;7635;56.696;13.002;2024-02-26T07:31:59;4.65;;;3.40;;
15071;SDS011;7635;56.696;13.002;2024-02-26T07:34:26;5.05;;;3.53;;
15071;SDS011;7635;56.696;13.002;2024-02-26T07:36:54;7.63;;;3.22;;
15071;SDS011;7635;56.696;13.002;2024-02-26T07:39:21;5.72;;;3.28;;
15071;SDS011;7635;56.696;13.002;2024-02-26T07:41:48;4.72;;;3.08;;
15071;SDS011;7635;56.696;13.002;2024-02-26T07:44:17;5.93;;;3.80;;
15071;SDS011;7635;56.696;13.002;2024-02-26T07:46:44;7.85;;;3.55;;
15071;SDS011;7635;56.696;13.002;2024-02-26T07:49:13;4.00;;;2.88;;
15071;SDS011;7635;56.696;13.002;2024-02-26T07:51:40;5.07;;;3.40;;
15071;SDS011;7635;56.696;13.002;2024-02-26T07:54:07;5.65;;;3.38;;
15071;SDS011;7635;56.696;13.002;2024-02-26T07:56:34;6.82;;;3.95;;
15071;SDS011;7635;56.696;13.002;2024-02-26T07:59:01;6.18;;;4.10;;
15071;SDS011;7635;56.696;13.002;2024-02-26T08:01:28;5.27;;;3.43;;
15071;SDS011;7635;56.696;13.002;2024-02-26T08:03:56;7.35;;;3.78;;
15071;SDS011;7635;56.696;13.002;2024-02-26T08:06:24;6.25;;;4.03;;
15071;SDS011;7635;56.696;13.002;2024-02-26T08:08:52;5.13;;;3.58;;
15071;SDS011;7635;56.696;13.002;2024-02-26T08:11:19;6.43;;;4.10;;
15071;SDS011;7635;56.696;13.002;2024-02-26T08:13:46;6.18;;;3.60;;
15071;SDS011;7635;56.696;13.002;2024-02-26T08:16:13;6.75;;;3.75;;
15071;SDS011;7635;56.696;13.002;2024-02-26T08:18:40;6.72;;;3.80;;
15071;SDS011;7635;56.696;13.002;2024-02-26T08:21:07;5.05;;;3.85;;
15071;SDS011;7635;56.696;13.002;2024-02-26T08:23:37;5.78;;;4.00;;
15071;SDS011;7635;56.696;13.002;2024-02-26T08:26:04;5.78;;;3.88;;
15071;SDS011;7635;56.696;13.002;2024-02-26T08:28:36;6.43;;;4.25;;
15071;SDS011;7635;56.696;13.002;2024-02-26T08:31:03;6.55;;;4.10;;
15071;SDS011;7635;56.696;13.002;2024-02-26T08:33:30;5.23;;;4.17;;
15071;SDS011;7635;56.696;13.002;2024-02-26T08:35:59;5.85;;;4.03;;
15071;SDS011;7635;56.696;13.002;2024-02-26T08:38:26;6.13;;;3.85;;
15071;SDS011;7635;56.696;13.002;2024-02-26T08:40:54;4.53;;;3.40;;
15071;SDS011;7635;56.696;13.002;2024-02-26T08:43:21;4.53;;;3.78;;
15071;SDS011;7635;56.696;13.002;2024-02-26T08:45:48;4.50;;;3.20;;
15071;SDS011;7635;56.696;13.002;2024-02-26T08:48:15;3.97;;;3.40;;
15071;SDS011;7635;56.696;13.002;2024-02-26T08:50:43;4.70;;;3.63;;
15071;SDS011;7635;56.696;13.002;2024-02-26T08:53:10;4.82;;;3.45;;
15071;SDS011;7635;56.696;13.002;2024-02-26T08:55:37;5.05;;;3.72;;
15071;SDS011;7635;56.696;13.002;2024-02-26T08:58:05;4.90;;;3.20;;
15071;SDS011;7635;56.696;13.002;2024-02-26T09:00:33;5.40;;;3.80;;
15071;SDS011;7635;56.696;13.002;2024-02-26T09:03:00;4.80;;;3.53;;
15071;SDS011;7635;56.696;13.002;2024-02-26T09:05:27;6.05;;;3.55;;
15071;SDS011;7635;56.696;13.002;2024-02-26T09:07:54;4.43;;;2.88;;
15071;SDS011;7635;56.696;13.002;2024-02-26T09:10:21;3.80;;;2.77;;
15071;SDS011;7635;56.696;13.002;2024-02-26T09:12:48;3.13;;;2.38;;
15071;SDS011;7635;56.696;13.002;2024-02-26T09:15:17;4.72;;;2.92;;
15071;SDS011;7635;56.696;13.002;2024-02-26T09:17:44;3.55;;;2.90;;
15071;SDS011;7635;56.696;13.002;2024-02-26T09:20:11;3.30;;;2.45;;
15071;SDS011;7635;56.696;13.002;2024-02-26T09:22:40;2.67;;;2.43;;
15071;SDS011;7635;56.696;13.002;2024-02-26T09:25:08;3.00;;;2.65;;
15071;SDS011;7635;56.696;13.002;2024-02-26T09:27:35;4.28;;;2.90;;
15071;SDS011;7635;56.696;13.002;2024-02-26T09:30:02;3.58;;;2.90;;
15071;SDS011;7635;56.696;13.002;2024-02-26T09:32:31;3.38;;;2.75;;
15071;SDS011;7635;56.696;13.002;2024-02-26T09:34:58;4.55;;;3.15;;
15071;SDS011;7635;56.696;13.002;2024-02-26T09:37:25;5.32;;;2.80;;
15071;SDS011;7635;56.696;13.002;2024-02-26T09:39:53;2.97;;;2.30;;
15071;SDS011;7635;56.696;13.002;2024-02-26T09:42:20;3.38;;;2.42;;
15071;SDS011;7635;56.696;13.002;2024-02-26T09:44:47;3.30;;;2.80;;
15071;SDS011;7635;56.696;13.002;2024-02-26T09:47:17;3.23;;;2.60;;
15071;SDS011;7635;56.696;13.002;2024-02-26T09:49:46;4.05;;;2.83;;
15071;SDS011;7635;56.696;13.002;2024-02-26T09:52:14;4.88;;;2.63;;
15071;SDS011;7635;56.696;13.002;2024-02-26T09:54:42;3.53;;;2.72;;
15071;SDS011;7635;56.696;13.002;2024-02-26T09:57:13;2.90;;;2.50;;
15071;SDS011;7635;56.696;13.002;2024-02-26T09:59:42;3.70;;;2.83;;
15071;SDS011;7635;56.696;13.002;2024-02-26T10:02:11;3.10;;;2.70;;
15071;SDS011;7635;56.696;13.002;2024-02-26T10:04:39;3.75;;;2.60;;
15071;SDS011;7635;56.696;13.002;2024-02-26T10:07:09;3.15;;;2.65;;
15071;SDS011;7635;56.696;13.002;2024-02-26T10:09:36;2.92;;;2.50;;
15071;SDS011;7635;56.696;13.002;2024-02-26T10:12:04;4.20;;;2.90;;
15071;SDS011;7635;56.696;13.002;2024-02-26T10:14:31;2.78;;;2.20;;
15071;SDS011;7635;56.696;13.002;2024-02-26T10:16:58;3.47;;;2.80;;
15071;SDS011;7635;56.696;13.002;2024-02-26T10:19:26;2.95;;;2.65;;
15071;SDS011;7635;56.696;13.002;2024-02-26T10:21:55;3.23;;;2.80;;
15071;SDS011;7635;56.696;13.002;2024-02-26T10:24:24;5.65;;;3.78;;
15071;SDS011;7635;56.696;13.002;2024-02-26T10:26:52;4.53;;;3.20;;
15071;SDS011;7635;56.696;13.002;2024-02-26T10:29:19;3.97;;;2.83;;
15071;SDS011;7635;56.696;13.002;2024-02-26T10:31:46;5.60;;;3.13;;
15071;SDS011;7635;56.696;13.002;2024-02-26T10:34:14;3.65;;;3.13;;
15071;SDS011;7635;56.696;13.002;2024-02-26T10:36:41;5.35;;;2.90;;
15071;SDS011;7635;56.696;13.002;2024-02-26T10:39:09;4.05;;;2.90;;
15071;SDS011;7635;56.696;13.002;2024-02-26T10:41:37;5.18;;;2.92;;
15071;SDS011;7635;56.696;13.002;2024-02-26T10:44:05;3.28;;;2.80;;
15071;SDS011;7635;56.696;13.002;2024-02-26T10:46:32;3.20;;;2.75;;
15071;SDS011;7635;56.696;13.002;2024-02-26T10:48:59;5.38;;;3.00;;
15071;SDS011;7635;56.696;13.002;2024-02-26T10:51:27;4.60;;;2.70;;
15071;SDS011;7635;56.696;13.002;2024-02-26T10:53:55;4.30;;;2.90;;
15071;SDS011;7635;56.696;13.002;2024-02-26T10:56:24;5.13;;;2.78;;
15071;SDS011;7635;56.696;13.002;2024-02-26T10:58:53;3.08;;;2.50;;
15071;SDS011;7635;56.696;13.002;2024-02-26T11:01:21;4.72;;;2.53;;
15071;SDS011;7635;56.696;13.002;2024-02-26T11:03:50;3.50;;;2.50;;
15071;SDS011;7635;56.696;13.002;2024-02-26T11:06:18;5.78;;;3.00;;
15071;SDS011;7635;56.696;13.002;2024-02-26T11:08:47;3.25;;;2.92;;
15071;SDS011;7635;56.696;13.002;2024-02-26T11:11:14;3.30;;;3.00;;
15071;SDS011;7635;56.696;13.002;2024-02-26T11:13:41;4.47;;;3.22;;
15071;SDS011;7635;56.696;13.002;2024-02-26T11:16:11;5.55;;;3.47;;
15071;SDS011;7635;56.696;13.002;2024-02-26T11:18:39;5.75;;;3.88;;
15071;SDS011;7635;56.696;13.002;2024-02-26T11:21:07;5.75;;;3.80;;
15071;SDS011;7635;56.696;13.002;2024-02-26T11:23:34;3.70;;;3.08;;
15071;SDS011;7635;56.696;13.002;2024-02-26T11:26:03;5.85;;;3.80;;
15071;SDS011;7635;56.696;13.002;2024-02-26T11:28:30;4.80;;;3.85;;
15071;SDS011;7635;56.696;13.002;2024-02-26T11:30:59;5.18;;;3.30;;
15071;SDS011;7635;56.696;13.002;2024-02-26T11:33:30;3.95;;;3.30;;
15071;SDS011;7635;56.696;13.002;2024-02-26T11:35:57;3.47;;;2.80;;
15071;SDS011;7635;56.696;13.002;2024-02-26T11:38:26;5.07;;;3.20;;
15071;SDS011;7635;56.696;13.002;2024-02-26T11:40:53;3.45;;;3.15;;
15071;SDS011;7635;56.696;13.002;2024-02-26T11:43:22;3.88;;;3.13;;
15071;SDS011;7635;56.696;13.002;2024-02-26T11:45:50;3.20;;;2.58;;
15071;SDS011;7635;56.696;13.002;2024-02-26T11:48:21;3.42;;;2.70;;
15071;SDS011;7635;56.696;13.002;2024-02-26T11:50:50;3.22;;;2.63;;
15071;SDS011;7635;56.696;13.002;2024-02-26T11:53:21;3.10;;;2.33;;
15071;SDS011;7635;56.696;13.002;2024-02-26T11:55:48;3.90;;;2.65;;
15071;SDS011;7635;56.696;13.002;2024-02-26T11:58:15;3.77;;;2.77;;
15071;SDS011;7635;56.696;13.002;2024-02-26T12:00:42;3.08;;;2.78;;
15071;SDS011;7635;56.696;13.002;2024-02-26T12:03:09;3.95;;;3.05;;
15071;SDS011;7635;56.696;13.002;2024-02-26T12:05:37;3.45;;;2.80;;
15071;SDS011;7635;56.696;13.002;2024-02-26T12:08:06;2.50;;;2.13;;
15071;SDS011;7635;56.696;13.002;2024-02-26T12:10:35;3.17;;;2.35;;
15071;SDS011;7635;56.696;13.002;2024-02-26T12:13:05;3.45;;;2.38;;
15071;SDS011;7635;56.696;13.002;2024-02-26T12:15:32;3.17;;;2.55;;
15071;SDS011;7635;56.696;13.002;2024-02-26T12:18:01;3.03;;;2.70;;
15071;SDS011;7635;56.696;13.002;2024-02-26T12:20:27;3.85;;;2.85;;
15071;SDS011;7635;56.696;13.002;2024-02-26T12:22:54;3.17;;;2.88;;
15071;SDS011;7635;56.696;13.002;2024-02-26T12:25:24;3.42;;;2.80;;
15071;SDS011;7635;56.696;13.002;2024-02-26T12:27:51;5.03;;;3.08;;
15071;SDS011;7635;56.696;13.002;2024-02-26T12:30:18;3.25;;;2.83;;
15071;SDS011;7635;56.696;13.002;2024-02-26T12:32:46;3.47;;;2.85;;
15071;SDS011;7635;56.696;13.002;2024-02-26T12:35:13;3.40;;;2.40;;
15071;SDS011;7635;56.696;13.002;2024-02-26T12:37:41;3.03;;;2.72;;
15071;SDS011;7635;56.696;13.002;2024-02-26T12:40:08;3.05;;;2.42;;
15071;SDS011;7635;56.696;13.002;2024-02-26T12:42:37;3.57;;;2.73;;
15071;SDS011;7635;56.696;13.002;2024-02-26T12:45:05;3.10;;;2.80;;
15071;SDS011;7635;56.696;13.002;2024-02-26T12:47:35;3.55;;;2.63;;
15071;SDS011;7635;56.696;13.002;2024-02-26T12:50:02;2.80;;;2.50;;
15071;SDS011;7635;56.696;13.002;2024-02-26T12:52:30;4.30;;;2.97;;
15071;SDS011;7635;56.696;13.002;2024-02-26T12:54:57;2.75;;;2.50;;
15071;SDS011;7635;56.696;13.002;2024-02-26T12:57:24;2.42;;;2.10;;
15071;SDS011;7635;56.696;13.002;2024-02-26T12:59:53;2.03;;;1.65;;
15071;SDS011;7635;56.696;13.002;2024-02-26T13:02:20;1.45;;;1.35;;
15071;SDS011;7635;56.696;13.002;2024-02-26T13:04:47;1.55;;;1.45;;
15071;SDS011;7635;56.696;13.002;2024-02-26T13:07:14;1.60;;;1.50;;
15071;SDS011;7635;56.696;13.002;2024-02-26T13:09:41;1.58;;;1.48;;
15071;SDS011;7635;56.696;13.002;2024-02-26T13:12:08;1.67;;;1.20;;
15071;SDS011;7635;56.696;13.002;2024-02-26T13:14:36;1.20;;;1.20;;
15071;SDS011;7635;56.696;13.002;2024-02-26T13:17:04;1.30;;;1.20;;
15071;SDS011;7635;56.696;13.002;2024-02-26T13:19:31;1.33;;;1.23;;
15071;SDS011;7635;56.696;13.002;2024-02-26T13:22:03;1.17;;;1.10;;
15071;SDS011;7635;56.696;13.002;2024-02-26T13:24:31;1.05;;;0.95;;
15071;SDS011;7635;56.696;13.002;2024-02-26T13:26:58;1.55;;;1.45;;
15071;SDS011;7635;56.696;13.002;2024-02-26T13:29:26;1.05;;;1.02;;
15071;SDS011;7635;56.696;13.002;2024-02-26T13:31:54;1.00;;;1.00;;
15071;SDS011;7635;56.696;13.002;2024-02-26T13:34:26;0.90;;;0.90;;
15071;SDS011;7635;56.696;13.002;2024-02-26T13:36:55;0.87;;;0.87;;
15071;SDS011;7635;56.696;13.002;2024-02-26T13:39:23;1.33;;;1.27;;
15071;SDS011;7635;56.696;13.002;2024-02-26T13:41:50;0.82;;;0.82;;
15071;SDS011;7635;56.696;13.002;2024-02-26T13:44:17;1.13;;;1.02;;
15071;SDS011;7635;56.696;13.002;2024-02-26T13:46:44;0.98;;;0.95;;
15071;SDS011;7635;56.696;13.002;2024-02-26T13:49:11;1.15;;;1.10;;
15071;SDS011;7635;56.696;13.002;2024-02-26T13:51:40;1.77;;;1.40;;
15071;SDS011;7635;56.696;13.002;2024-02-26T13:54:07;2.55;;;1.60;;
15071;SDS011;7635;56.696;13.002;2024-02-26T13:56:34;2.20;;;2.00;;
15071;SDS011;7635;56.696;13.002;2024-02-26T13:59:01;3.15;;;2.15;;
15071;SDS011;7635;56.696;13.002;2024-02-26T14:01:28;2.38;;;2.05;;
15071;SDS011;7635;56.696;13.002;2024-02-26T14:03:58;2.72;;;1.80;;
15071;SDS011;7635;56.696;13.002;2024-02-26T14:06:26;2.22;;;2.03;;
15071;SDS011;7635;56.696;13.002;2024-02-26T14:08:55;2.10;;;1.83;;
15071;SDS011;7635;56.696;13.002;2024-02-26T14:11:22;2.35;;;2.00;;
15071;SDS011;7635;56.696;13.002;2024-02-26T14:13:50;2.13;;;1.92;;
15071;SDS011;7635;56.696;13.002;2024-02-26T14:16:18;3.45;;;2.20;;
15071;SDS011;7635;56.696;13.002;2024-02-26T14:18:45;2.53;;;2.28;;
15071;SDS011;7635;56.696;13.002;2024-02-26T14:21:12;3.63;;;2.43;;
15071;SDS011;7635;56.696;13.002;2024-02-26T14:23:39;4.33;;;2.40;;
15071;SDS011;7635;56.696;13.002;2024-02-26T14:26:10;3.95;;;2.20;;
15071;SDS011;7635;56.696;13.002;2024-02-26T14:28:37;2.53;;;2.20;;
15071;SDS011;7635;56.696;13.002;2024-02-26T14:31:05;2.23;;;2.03;;
15071;SDS011;7635;56.696;13.002;2024-02-26T14:33:36;3.40;;;2.40;;
15071;SDS011;7635;56.696;13.002;2024-02-26T14:36:05;2.60;;;2.20;;
15071;SDS011;7635;56.696;13.002;2024-02-26T14:38:32;2.30;;;2.10;;
15071;SDS011;7635;56.696;13.002;2024-02-26T14:40:59;4.63;;;2.30;;
15071;SDS011;7635;56.696;13.002;2024-02-26T14:43:29;3.83;;;1.83;;
15071;SDS011;7635;56.696;13.002;2024-02-26T14:45:57;1.40;;;1.30;;
15071;SDS011;7635;56.696;13.002;2024-02-26T14:48:24;1.47;;;1.37;;
15071;SDS011;7635;56.696;13.002;2024-02-26T14:50:51;1.40;;;1.30;;